createdAt,value
2022-08-26T00:00:29.303Z,19.11
2022-08-26T00:01:29.848Z,19.02
2022-08-26T00:02:29.371Z,18.95
2022-08-26T00:03:29.291Z,18.90
2022-08-26T00:04:29.418Z,18.89
2022-08-26T00:05:29.234Z,18.89
2022-08-26T00:06:29.230Z,18.90
2022-08-26T00:07:29.242Z,18.90
2022-08-26T00:08:29.210Z,18.86
2022-08-26T00:09:29.210Z,18.86
2022-08-26T00:10:29.169Z,18.80
2022-08-26T00:11:29.152Z,18.81
2022-08-26T00:12:37.354Z,18.83
2022-08-26T00:13:29.132Z,18.84
2022-08-26T00:14:31.147Z,18.88
2022-08-26T00:15:29.133Z,18.90
2022-08-26T00:16:29.127Z,18.95
2022-08-26T00:17:29.071Z,18.96
2022-08-26T00:18:29.061Z,18.98
2022-08-26T00:19:29.039Z,18.99
2022-08-26T00:20:29.070Z,19.02
2022-08-26T00:21:29.037Z,19.04
2022-08-26T00:22:29.024Z,19.08
2022-08-26T00:23:29.016Z,19.09
2022-08-26T00:24:28.966Z,19.11
2022-08-26T00:25:29.001Z,19.12
2022-08-26T00:26:29.209Z,19.14
2022-08-26T00:27:28.953Z,19.14
2022-08-26T00:28:28.918Z,19.12
2022-08-26T00:29:28.919Z,19.11
2022-08-26T00:30:28.903Z,19.09
2022-08-26T00:31:28.930Z,19.08
2022-08-26T00:32:28.914Z,19.09
2022-08-26T00:33:28.860Z,19.08
2022-08-26T00:34:28.850Z,19.08
2022-08-26T00:35:28.823Z,19.08
2022-08-26T00:36:29.904Z,19.07
2022-08-26T00:37:28.830Z,19.07
2022-08-26T00:38:28.802Z,19.07
2022-08-26T00:39:28.783Z,19.07
2022-08-26T00:40:28.793Z,19.02
2022-08-26T00:41:28.782Z,18.98
2022-08-26T00:42:28.752Z,18.93
2022-08-26T00:43:28.718Z,18.92
2022-08-26T00:44:28.725Z,18.92
2022-08-26T00:45:28.762Z,18.90
2022-08-26T00:46:28.686Z,18.90
2022-08-26T00:47:31.145Z,18.90
2022-08-26T00:48:31.798Z,18.89
2022-08-26T00:49:28.645Z,18.88
2022-08-26T00:50:28.623Z,18.83
2022-08-26T00:51:30.011Z,18.81
2022-08-26T00:52:28.710Z,18.80
2022-08-26T00:53:28.579Z,18.77
2022-08-26T00:54:28.583Z,18.75
2022-08-26T00:55:34.638Z,18.75
2022-08-26T00:56:28.582Z,18.75
2022-08-26T00:57:28.597Z,18.77
2022-08-26T00:58:28.533Z,18.77
2022-08-26T00:59:28.540Z,18.77
2022-08-26T01:00:28.496Z,18.74
2022-08-26T01:01:28.520Z,18.73
2022-08-26T01:02:28.875Z,18.70
2022-08-26T01:03:28.456Z,18.68
2022-08-26T01:04:28.466Z,18.63
2022-08-26T01:05:28.459Z,18.60
2022-08-26T01:06:28.436Z,18.53
2022-08-26T01:07:30.113Z,18.50
2022-08-26T01:08:28.383Z,18.49
2022-08-26T01:09:28.406Z,18.50
2022-08-26T01:10:28.608Z,18.49
2022-08-26T01:11:28.345Z,18.50
2022-08-26T01:12:28.353Z,18.53
2022-08-26T01:13:28.335Z,18.53
2022-08-26T01:14:28.331Z,18.55
2022-08-26T01:15:28.307Z,18.55
2022-08-26T01:16:28.331Z,18.52
2022-08-26T01:17:28.256Z,18.52
2022-08-26T01:18:28.259Z,18.52
2022-08-26T01:19:28.325Z,18.52
2022-08-26T01:20:28.216Z,18.52
2022-08-26T01:21:28.222Z,18.49
2022-08-26T01:22:28.659Z,18.47
2022-08-26T01:23:28.212Z,18.47
2022-08-26T01:24:28.170Z,18.47
2022-08-26T01:25:28.226Z,18.45
2022-08-26T01:26:28.167Z,18.44
2022-08-26T01:27:28.125Z,18.44
2022-08-26T01:28:28.130Z,18.44
2022-08-26T01:29:28.108Z,18.45
2022-08-26T01:30:28.099Z,18.41
2022-08-26T01:31:28.159Z,18.34
2022-08-26T01:32:28.079Z,18.33
2022-08-26T01:33:28.088Z,18.29
2022-08-26T01:34:28.019Z,18.29
2022-08-26T01:35:28.049Z,18.28
2022-08-26T01:36:28.037Z,18.28
2022-08-26T01:37:28.012Z,18.26
2022-08-26T01:38:28.081Z,18.26
2022-08-26T01:39:27.965Z,18.25
2022-08-26T01:40:28.039Z,18.23
2022-08-26T01:41:29.181Z,18.23
2022-08-26T01:42:28.509Z,18.23
2022-08-26T01:43:27.909Z,18.22
2022-08-26T01:44:27.896Z,18.20
2022-08-26T01:45:27.939Z,18.22
2022-08-26T01:46:27.906Z,18.22
2022-08-26T01:49:45.090Z,18.20
2022-08-26T01:50:45.409Z,18.15
2022-08-26T01:51:45.456Z,18.11
2022-08-26T01:52:45.405Z,18.08
2022-08-26T01:53:45.980Z,18.08
2022-08-26T01:54:46.299Z,18.08
2022-08-26T01:55:45.389Z,18.08
2022-08-26T01:56:45.392Z,18.04
2022-08-26T01:57:45.587Z,18.03
2022-08-26T01:58:45.314Z,18.03
2022-08-26T01:59:45.326Z,18.01
2022-08-26T02:00:45.377Z,17.97
2022-08-26T02:01:45.435Z,17.94
2022-08-26T02:02:45.261Z,17.92
2022-08-26T02:03:45.282Z,17.90
2022-08-26T02:04:45.293Z,17.89
2022-08-26T02:05:45.199Z,17.87
2022-08-26T02:06:45.210Z,17.86
2022-08-26T02:07:45.213Z,17.86
2022-08-26T02:08:45.164Z,17.85
2022-08-26T02:09:45.161Z,17.85
2022-08-26T02:10:45.155Z,17.86
2022-08-26T02:11:45.123Z,17.85
2022-08-26T02:12:45.170Z,17.83
2022-08-26T02:13:45.099Z,17.83
2022-08-26T02:14:45.094Z,17.82
2022-08-26T02:15:45.086Z,17.82
2022-08-26T02:16:45.134Z,17.83
2022-08-26T02:17:45.073Z,17.82
2022-08-26T02:18:45.089Z,17.82
2022-08-26T02:19:45.014Z,17.83
2022-08-26T02:20:45.020Z,17.82
2022-08-26T02:21:44.977Z,17.80
2022-08-26T02:22:45.350Z,17.80
2022-08-26T02:23:44.975Z,17.79
2022-08-26T02:24:44.951Z,17.76
2022-08-26T02:25:44.945Z,17.74
2022-08-26T02:26:44.920Z,17.67
2022-08-26T02:27:44.921Z,17.65
2022-08-26T02:28:44.908Z,17.64
2022-08-26T02:29:44.882Z,17.63
2022-08-26T02:30:44.877Z,17.59
2022-08-26T02:31:44.915Z,17.49
2022-08-26T02:32:44.841Z,17.46
2022-08-26T02:33:44.844Z,17.48
2022-08-26T02:34:45.801Z,17.46
2022-08-26T02:35:44.817Z,17.45
2022-08-26T02:36:44.797Z,17.44
2022-08-26T02:37:44.939Z,17.42
2022-08-26T02:38:44.747Z,17.41
2022-08-26T02:39:44.771Z,17.38
2022-08-26T02:40:44.724Z,17.38
2022-08-26T02:41:45.321Z,17.36
2022-08-26T02:42:44.733Z,17.38
2022-08-26T02:43:44.694Z,17.39
2022-08-26T02:44:44.700Z,17.39
2022-08-26T02:45:44.670Z,17.39
2022-08-26T02:46:47.091Z,17.39
2022-08-26T02:47:44.641Z,17.41
2022-08-26T02:48:44.634Z,17.42
2022-08-26T02:49:44.645Z,17.42
2022-08-26T02:50:44.590Z,17.41
2022-08-26T02:51:44.583Z,17.36
2022-08-26T02:52:44.805Z,17.31
2022-08-26T02:53:45.354Z,17.33
2022-08-26T02:54:44.563Z,17.31
2022-08-26T02:55:44.539Z,17.30
2022-08-26T02:56:44.507Z,17.31
2022-08-26T02:57:44.484Z,17.30
2022-08-26T02:58:44.497Z,17.33
2022-08-26T02:59:44.467Z,17.30
2022-08-26T03:00:53.105Z,17.27
2022-08-26T03:01:44.570Z,17.27
2022-08-26T03:02:44.483Z,17.26
2022-08-26T03:03:44.416Z,17.22
2022-08-26T03:04:57.957Z,17.22
2022-08-26T03:05:44.443Z,17.23
2022-08-26T03:06:47.070Z,17.23
2022-08-26T03:07:44.345Z,17.23
2022-08-26T03:08:44.359Z,17.22
2022-08-26T03:09:44.357Z,17.23
2022-08-26T03:10:44.319Z,17.23
2022-08-26T03:11:44.292Z,17.20
2022-08-26T03:12:44.310Z,17.19
2022-08-26T03:13:44.282Z,17.16
2022-08-26T03:14:44.286Z,17.15
2022-08-26T03:15:44.282Z,17.15
2022-08-26T03:16:44.229Z,17.14
2022-08-26T03:17:44.208Z,17.14
2022-08-26T03:18:44.229Z,17.12
2022-08-26T03:19:44.237Z,17.09
2022-08-26T03:20:44.203Z,17.08
2022-08-26T03:21:44.202Z,17.06
2022-08-26T03:22:44.137Z,17.06
2022-08-26T03:23:44.124Z,17.08
2022-08-26T03:24:46.201Z,17.08
2022-08-26T03:25:44.097Z,17.04
2022-08-26T03:26:52.354Z,16.99
2022-08-26T03:27:44.107Z,16.97
2022-08-26T03:28:44.084Z,16.96
2022-08-26T03:29:44.051Z,16.93
2022-08-26T03:30:44.618Z,16.89
2022-08-26T03:31:44.155Z,16.89
2022-08-26T03:32:44.005Z,16.89
2022-08-26T03:33:43.993Z,16.87
2022-08-26T03:34:43.983Z,16.89
2022-08-26T03:35:43.981Z,16.89
2022-08-26T03:36:43.988Z,16.81
2022-08-26T03:37:43.937Z,16.78
2022-08-26T03:38:43.920Z,16.79
2022-08-26T03:39:43.909Z,16.76
2022-08-26T03:40:43.951Z,16.74
2022-08-26T03:41:43.923Z,16.74
2022-08-26T03:42:45.327Z,16.72
2022-08-26T03:44:55.416Z,16.75
2022-08-26T03:45:55.771Z,16.72
2022-08-26T03:46:55.801Z,16.74
2022-08-26T03:47:55.746Z,16.75
2022-08-26T03:48:55.712Z,16.78
2022-08-26T03:49:55.740Z,16.79
2022-08-26T03:50:55.706Z,16.79
2022-08-26T03:51:55.669Z,16.76
2022-08-26T03:52:55.690Z,16.79
2022-08-26T03:53:55.672Z,16.78
2022-08-26T03:54:55.669Z,16.72
2022-08-26T03:55:55.617Z,16.64
2022-08-26T03:56:55.597Z,16.58
2022-08-26T03:57:55.603Z,16.57
2022-08-26T03:58:55.609Z,16.57
2022-08-26T03:59:55.577Z,16.54
2022-08-26T04:00:55.940Z,16.56
2022-08-26T04:01:55.601Z,16.58
2022-08-26T04:02:55.594Z,16.58
2022-08-26T04:03:55.514Z,16.65
2022-08-26T04:04:55.530Z,16.68
2022-08-26T04:05:55.501Z,16.71
2022-08-26T04:06:55.470Z,16.71
2022-08-26T04:07:55.498Z,16.72
2022-08-26T04:08:55.447Z,16.74
2022-08-26T04:09:55.437Z,16.74
2022-08-26T04:10:55.410Z,16.74
2022-08-26T04:11:55.388Z,16.75
2022-08-26T04:12:55.408Z,16.72
2022-08-26T04:13:55.392Z,16.72
2022-08-26T04:14:55.342Z,16.74
2022-08-26T04:15:55.403Z,16.71
2022-08-26T04:16:55.488Z,16.69
2022-08-26T04:17:56.017Z,16.71
2022-08-26T04:18:55.296Z,16.72
2022-08-26T04:19:55.267Z,16.71
2022-08-26T04:20:55.302Z,16.74
2022-08-26T04:21:55.253Z,16.72
2022-08-26T04:22:55.265Z,16.75
2022-08-26T04:23:55.262Z,16.74
2022-08-26T04:24:55.203Z,16.72
2022-08-26T04:25:55.213Z,16.74
2022-08-26T04:26:55.179Z,16.69
2022-08-26T04:27:55.184Z,16.69
2022-08-26T04:28:55.208Z,16.61
2022-08-26T04:29:55.495Z,16.56
2022-08-26T04:30:55.208Z,16.56
2022-08-26T04:31:55.622Z,16.51
2022-08-26T04:32:55.106Z,16.49
2022-08-26T04:33:55.102Z,16.49
2022-08-26T04:34:55.116Z,16.50
2022-08-26T04:35:55.093Z,16.50
2022-08-26T04:36:55.039Z,16.50
2022-08-26T04:37:55.037Z,16.51
2022-08-26T04:38:55.031Z,16.53
2022-08-26T04:39:55.062Z,16.51
2022-08-26T04:40:54.986Z,16.51
2022-08-26T04:41:55.001Z,16.53
2022-08-26T04:42:54.987Z,16.53
2022-08-26T04:43:54.950Z,16.53
2022-08-26T04:44:54.991Z,16.54
2022-08-26T04:45:54.929Z,16.57
2022-08-26T04:46:54.988Z,16.58
2022-08-26T04:47:54.909Z,16.60
2022-08-26T04:48:54.889Z,16.60
2022-08-26T04:49:54.905Z,16.60
2022-08-26T04:50:54.879Z,16.58
2022-08-26T04:51:54.837Z,16.53
2022-08-26T04:52:54.829Z,16.53
2022-08-26T04:53:54.866Z,16.51
2022-08-26T04:54:54.826Z,16.53
2022-08-26T04:55:55.225Z,16.53
2022-08-26T04:56:54.814Z,16.54
2022-08-26T04:57:54.759Z,16.54
2022-08-26T04:58:54.755Z,16.53
2022-08-26T04:59:54.770Z,16.56
2022-08-26T05:00:54.708Z,16.57
2022-08-26T05:01:54.768Z,16.57
2022-08-26T05:02:54.705Z,16.54
2022-08-26T05:06:19.050Z,16.57
2022-08-26T05:07:19.820Z,16.60
2022-08-26T05:09:58.514Z,16.66
2022-08-26T05:10:59.512Z,16.68
2022-08-26T05:11:59.471Z,16.69
2022-08-26T05:17:28.642Z,16.75
2022-08-26T05:18:29.754Z,16.78
2022-08-26T05:19:29.643Z,16.79
2022-08-26T05:20:29.584Z,16.83
2022-08-26T05:21:29.655Z,16.84
2022-08-26T05:22:29.583Z,16.86
2022-08-26T05:23:29.550Z,16.86
2022-08-26T05:24:29.540Z,16.86
2022-08-26T05:25:29.525Z,16.84
2022-08-26T05:26:29.590Z,16.86
2022-08-26T05:27:29.513Z,16.86
2022-08-26T05:28:29.549Z,16.86
2022-08-26T05:29:29.499Z,16.87
2022-08-26T05:30:29.451Z,16.86
2022-08-26T05:31:29.517Z,16.81
2022-08-26T05:32:29.441Z,16.84
2022-08-26T05:33:29.422Z,16.84
2022-08-26T05:34:30.336Z,16.78
2022-08-26T05:35:29.447Z,16.79
2022-08-26T05:36:29.402Z,16.79
2022-08-26T05:37:29.410Z,16.78
2022-08-26T05:38:30.359Z,16.81
2022-08-26T05:39:29.328Z,16.83
2022-08-26T05:40:29.494Z,16.84
2022-08-26T05:41:34.542Z,16.87
2022-08-26T05:42:29.386Z,16.90
2022-08-26T05:43:29.277Z,16.91
2022-08-26T05:44:29.337Z,16.94
2022-08-26T05:45:29.291Z,16.97
2022-08-26T05:46:29.295Z,17.01
2022-08-26T05:47:29.238Z,17.01
2022-08-26T05:48:29.204Z,16.99
2022-08-26T05:49:29.267Z,16.97
2022-08-26T05:50:29.240Z,16.99
2022-08-26T05:51:30.407Z,16.97
2022-08-26T05:52:29.176Z,16.99
2022-08-26T05:53:29.166Z,16.99
2022-08-26T05:54:29.228Z,17.02
2022-08-26T05:55:29.115Z,17.06
2022-08-26T05:56:29.095Z,17.09
2022-08-26T05:57:29.092Z,17.14
2022-08-26T05:58:29.201Z,17.16
2022-08-26T05:59:29.056Z,17.20
2022-08-26T06:00:29.039Z,17.24
2022-08-26T06:01:29.126Z,17.27
2022-08-26T06:02:29.047Z,17.30
2022-08-26T06:03:29.025Z,17.31
2022-08-26T06:04:29.551Z,17.36
2022-08-26T06:05:29.052Z,17.39
2022-08-26T06:06:28.989Z,17.45
2022-08-26T06:07:28.948Z,17.48
2022-08-26T06:08:28.950Z,17.57
2022-08-26T06:09:28.916Z,17.64
2022-08-26T06:10:32.630Z,17.70
2022-08-26T06:11:28.918Z,17.79
2022-08-26T06:12:28.902Z,17.87
2022-08-26T06:13:31.900Z,18.01
2022-08-26T06:14:28.875Z,18.19
2022-08-26T06:15:28.882Z,18.38
2022-08-26T06:16:28.814Z,19.07
2022-08-26T06:17:28.807Z,20.00
2022-08-26T06:18:28.968Z,20.84
2022-08-26T06:19:32.984Z,21.45
2022-08-26T06:20:28.825Z,22.11
2022-08-26T06:21:28.823Z,22.73
2022-08-26T06:22:28.801Z,23.20
2022-08-26T06:23:28.726Z,23.69
2022-08-26T06:24:28.752Z,24.26
2022-08-26T06:25:28.692Z,24.81
2022-08-26T06:26:28.730Z,25.18
2022-08-26T06:27:32.603Z,25.43
2022-08-26T06:28:28.663Z,25.81
2022-08-26T06:29:28.656Z,26.18
2022-08-26T06:30:28.638Z,26.43
2022-08-26T06:31:28.772Z,26.53
2022-08-26T06:32:28.633Z,26.51
2022-08-26T06:33:28.602Z,26.73
2022-08-26T06:34:29.935Z,26.92
2022-08-26T06:35:28.571Z,27.08
2022-08-26T06:36:28.566Z,27.39
2022-08-26T06:37:28.532Z,27.83
2022-08-26T06:38:28.578Z,27.82
2022-08-26T06:39:30.884Z,27.68
2022-08-26T06:40:28.539Z,27.83
2022-08-26T06:41:28.519Z,27.98
2022-08-26T06:42:28.489Z,28.10
2022-08-26T06:43:28.519Z,28.11
2022-08-26T06:44:28.498Z,28.11
2022-08-26T06:45:28.434Z,28.02
2022-08-26T06:46:28.491Z,27.96
2022-08-26T06:47:28.432Z,27.73
2022-08-26T06:48:28.457Z,27.68
2022-08-26T06:49:28.450Z,27.60
2022-08-26T06:50:28.408Z,27.89
2022-08-26T06:52:49.480Z,28.22
2022-08-26T06:53:50.416Z,28.19
2022-08-26T06:54:50.399Z,28.23
2022-08-26T06:55:51.854Z,28.42
2022-08-26T06:56:50.363Z,28.42
2022-08-26T06:57:50.338Z,28.25
2022-08-26T06:58:50.338Z,28.04
2022-08-26T06:59:51.144Z,27.80
2022-08-26T07:00:50.309Z,27.51
2022-08-26T07:01:50.405Z,27.11
2022-08-26T07:02:50.347Z,26.88
2022-08-26T07:03:50.272Z,26.36
2022-08-26T07:04:51.183Z,25.95
2022-08-26T07:05:50.261Z,25.48
2022-08-26T07:06:50.287Z,25.01
2022-08-26T07:07:50.239Z,24.58
2022-08-26T07:08:50.200Z,24.36
2022-08-26T07:09:52.679Z,24.14
2022-08-26T07:10:50.176Z,23.95
2022-08-26T07:11:50.171Z,23.74
2022-08-26T07:12:50.281Z,23.55
2022-08-26T07:13:50.149Z,23.32
2022-08-26T07:14:50.159Z,23.17
2022-08-26T07:15:50.163Z,23.09
2022-08-26T07:16:50.348Z,23.02
2022-08-26T07:17:50.079Z,22.96
2022-08-26T07:18:50.098Z,22.93
2022-08-26T07:19:50.095Z,22.90
2022-08-26T07:20:50.043Z,22.85
2022-08-26T07:21:50.051Z,22.81
2022-08-26T07:22:50.028Z,22.78
2022-08-26T07:23:50.016Z,22.80
2022-08-26T07:24:49.979Z,22.81
2022-08-26T07:25:50.238Z,22.78
2022-08-26T07:26:50.004Z,22.85
2022-08-26T07:27:54.257Z,22.88
2022-08-26T07:28:49.975Z,22.91
2022-08-26T07:29:49.958Z,23.05
2022-08-26T07:30:49.953Z,23.08
2022-08-26T07:31:50.789Z,23.10
2022-08-26T07:32:49.934Z,23.08
2022-08-26T07:33:49.871Z,23.06
2022-08-26T07:34:49.980Z,23.05
2022-08-26T07:35:49.873Z,23.02
2022-08-26T07:36:49.959Z,23.00
2022-08-26T07:37:52.836Z,23.05
2022-08-26T07:38:49.974Z,23.03
2022-08-26T07:39:49.948Z,23.00
2022-08-26T07:40:49.767Z,22.99
2022-08-26T07:41:49.808Z,22.98
2022-08-26T07:42:50.634Z,22.96
2022-08-26T07:43:50.916Z,22.98
2022-08-26T07:44:49.747Z,22.99
2022-08-26T07:45:49.765Z,22.98
2022-08-26T07:46:52.246Z,23.03
2022-08-26T07:47:50.520Z,23.02
2022-08-26T07:48:49.788Z,22.99
2022-08-26T07:49:52.790Z,23.00
2022-08-26T07:50:50.725Z,23.00
2022-08-26T07:51:49.621Z,23.05
2022-08-26T07:52:49.631Z,23.06
2022-08-26T07:53:52.632Z,23.10
2022-08-26T07:54:49.584Z,23.13
2022-08-26T07:55:49.595Z,23.15
2022-08-26T07:56:49.559Z,23.18
2022-08-26T07:57:49.567Z,23.23
2022-08-26T07:58:51.498Z,23.21
2022-08-26T07:59:49.544Z,23.23
2022-08-26T08:00:49.518Z,23.25
2022-08-26T08:01:49.509Z,23.25
2022-08-26T08:02:49.740Z,23.27
2022-08-26T08:03:50.532Z,23.28
2022-08-26T08:04:49.513Z,23.31
2022-08-26T08:05:49.450Z,23.32
2022-08-26T08:06:49.440Z,23.34
2022-08-26T08:07:49.416Z,23.36
2022-08-26T08:08:50.701Z,23.37
2022-08-26T08:09:49.379Z,23.40
2022-08-26T08:10:49.464Z,23.44
2022-08-26T08:11:49.346Z,23.48
2022-08-26T08:12:49.355Z,23.54
2022-08-26T08:13:49.333Z,23.56
2022-08-26T08:14:49.340Z,23.59
2022-08-26T08:15:50.293Z,23.62
2022-08-26T08:16:53.317Z,23.63
2022-08-26T08:17:51.487Z,23.66
2022-08-26T08:18:49.275Z,23.65
2022-08-26T08:19:49.257Z,23.68
2022-08-26T08:21:04.701Z,23.73
2022-08-26T08:21:49.237Z,23.76
2022-08-26T08:22:49.223Z,23.81
2022-08-26T08:23:49.261Z,23.83
2022-08-26T08:24:49.944Z,23.87
2022-08-26T08:25:49.160Z,23.95
2022-08-26T08:26:49.143Z,23.98
2022-08-26T08:27:49.178Z,24.02
2022-08-26T08:28:49.157Z,24.05
2022-08-26T08:29:49.135Z,24.06
2022-08-26T08:30:49.142Z,24.11
2022-08-26T08:32:57.935Z,24.17
2022-08-26T08:33:58.903Z,24.20
2022-08-26T08:34:58.878Z,24.21
2022-08-26T08:35:58.892Z,24.23
2022-08-26T08:36:58.889Z,24.20
2022-08-26T08:37:58.859Z,24.20
2022-08-26T08:38:58.831Z,24.21
2022-08-26T08:39:58.889Z,24.24
2022-08-26T08:40:58.816Z,24.29
2022-08-26T08:41:58.792Z,24.32
2022-08-26T08:42:58.773Z,24.35
2022-08-26T08:43:58.768Z,24.40
2022-08-26T08:44:58.779Z,24.43
2022-08-26T08:45:58.767Z,24.48
2022-08-26T08:46:58.744Z,24.55
2022-08-26T08:47:58.728Z,24.57
2022-08-26T08:48:58.701Z,24.63
2022-08-26T08:49:58.675Z,24.66
2022-08-26T08:50:58.704Z,24.68
2022-08-26T08:51:58.672Z,24.69
2022-08-26T08:52:58.637Z,24.76
2022-08-26T08:53:58.697Z,24.81
2022-08-26T08:54:58.635Z,24.86
2022-08-26T08:55:58.601Z,24.92
2022-08-26T08:56:59.704Z,24.95
2022-08-26T08:58:02.105Z,25.01
2022-08-26T08:58:58.600Z,25.08
2022-08-26T08:59:58.559Z,25.18
2022-08-26T09:00:58.605Z,25.23
2022-08-26T09:01:58.576Z,25.31
2022-08-26T09:02:58.535Z,25.33
2022-08-26T09:03:58.491Z,25.36
2022-08-26T09:04:58.475Z,25.40
2022-08-26T09:05:58.475Z,25.47
2022-08-26T09:07:58.464Z,25.55
2022-08-26T09:08:58.425Z,25.63
2022-08-26T09:09:58.415Z,25.63
2022-08-26T09:10:58.437Z,25.63
2022-08-26T09:11:58.391Z,25.69
2022-08-26T09:12:58.393Z,25.75
2022-08-26T09:13:58.372Z,25.81
2022-08-26T09:14:58.333Z,25.80
2022-08-26T09:15:58.332Z,25.90
2022-08-26T09:16:58.374Z,25.90
2022-08-26T09:17:58.332Z,25.93
2022-08-26T09:18:58.284Z,25.95
2022-08-26T09:19:58.279Z,26.05
2022-08-26T09:20:58.273Z,26.07
2022-08-26T09:21:58.254Z,26.13
2022-08-26T09:22:58.254Z,26.22
2022-08-26T09:23:58.234Z,26.28
2022-08-26T09:24:58.210Z,26.36
2022-08-26T09:25:58.234Z,26.41
2022-08-26T09:26:58.176Z,26.45
2022-08-26T09:27:58.180Z,26.48
2022-08-26T09:28:58.159Z,26.51
2022-08-26T09:29:58.181Z,26.51
2022-08-26T09:30:58.423Z,26.47
2022-08-26T09:31:58.138Z,26.48
2022-08-26T09:32:58.133Z,26.53
2022-08-26T09:33:58.093Z,26.56
2022-08-26T09:34:58.073Z,26.55
2022-08-26T09:35:58.069Z,26.59
2022-08-26T09:36:58.072Z,26.68
2022-08-26T09:37:58.065Z,26.78
2022-08-26T09:38:58.021Z,26.83
2022-08-26T09:39:58.051Z,26.88
2022-08-26T09:40:59.440Z,26.93
2022-08-26T09:41:57.981Z,27.00
2022-08-26T09:42:57.986Z,27.08
2022-08-26T09:43:57.980Z,27.08
2022-08-26T09:44:57.937Z,27.14
2022-08-26T09:45:59.724Z,27.08
2022-08-26T09:46:57.963Z,27.10
2022-08-26T09:47:57.934Z,27.21
2022-08-26T09:48:57.889Z,27.30
2022-08-26T09:49:57.891Z,27.42
2022-08-26T09:50:57.853Z,27.49
2022-08-26T09:51:57.852Z,27.58
2022-08-26T09:52:57.862Z,27.58
2022-08-26T09:53:57.837Z,27.54
2022-08-26T09:54:57.819Z,27.55
2022-08-26T09:55:57.802Z,27.51
2022-08-26T09:56:57.781Z,27.54
2022-08-26T09:58:02.235Z,27.58
2022-08-26T09:58:57.873Z,27.68
2022-08-26T09:59:57.761Z,27.74
2022-08-26T10:00:57.844Z,27.80
2022-08-26T10:01:57.809Z,27.80
2022-08-26T10:02:58.168Z,27.85
2022-08-26T10:03:57.784Z,27.90
2022-08-26T10:04:57.674Z,28.00
2022-08-26T10:05:57.670Z,28.07
2022-08-26T10:06:57.751Z,28.17
2022-08-26T10:07:57.642Z,28.22
2022-08-26T10:08:57.623Z,28.27
2022-08-26T10:09:57.656Z,28.25
2022-08-26T10:10:57.602Z,28.23
2022-08-26T10:11:57.577Z,28.30
2022-08-26T10:12:57.623Z,28.32
2022-08-26T10:13:57.577Z,28.42
2022-08-26T10:14:57.570Z,28.52
2022-08-26T10:15:57.535Z,28.57
2022-08-26T10:16:57.639Z,28.57
2022-08-26T10:17:57.514Z,28.60
2022-08-26T10:19:00.145Z,28.63
2022-08-26T10:19:57.937Z,28.67
2022-08-26T10:20:57.474Z,28.74
2022-08-26T10:21:57.456Z,28.76
2022-08-26T10:22:57.436Z,28.86
2022-08-26T10:23:57.437Z,28.94
2022-08-26T10:24:57.436Z,28.97
2022-08-26T10:25:59.118Z,29.04
2022-08-26T10:26:57.429Z,29.10
2022-08-26T10:27:57.378Z,29.17
2022-08-26T10:28:57.360Z,29.24
2022-08-26T10:29:57.378Z,29.31
2022-08-26T10:30:57.342Z,29.39
2022-08-26T10:32:02.429Z,29.41
2022-08-26T10:32:57.310Z,29.50
2022-08-26T10:34:00.264Z,29.65
2022-08-26T10:34:57.286Z,29.76
2022-08-26T10:35:57.276Z,29.88
2022-08-26T10:37:15.706Z,29.93
2022-08-26T10:37:57.250Z,29.94
2022-08-26T10:38:57.233Z,29.95
2022-08-26T10:39:59.042Z,30.03
2022-08-26T10:40:57.220Z,30.08
2022-08-26T10:41:57.220Z,30.13
2022-08-26T10:42:57.178Z,30.25
2022-08-26T10:43:57.165Z,30.40
2022-08-26T10:44:58.482Z,30.53
2022-08-26T10:45:57.322Z,30.65
2022-08-26T10:46:57.129Z,30.78
2022-08-26T10:47:57.134Z,30.92
2022-08-26T10:48:57.096Z,31.03
2022-08-26T10:50:00.543Z,31.06
2022-08-26T10:50:57.101Z,31.03
2022-08-26T10:51:57.087Z,31.03
2022-08-26T10:52:57.045Z,31.03
2022-08-26T10:53:57.044Z,31.05
2022-08-26T10:54:57.023Z,31.07
2022-08-26T10:55:57.019Z,31.17
2022-08-26T10:56:56.991Z,31.22
2022-08-26T10:57:57.061Z,31.28
2022-08-26T10:58:56.995Z,31.42
2022-08-26T10:59:56.968Z,31.51
2022-08-26T11:00:57.049Z,31.55
2022-08-26T11:01:56.939Z,31.64
2022-08-26T11:02:56.941Z,31.65
2022-08-26T11:03:57.929Z,31.78
2022-08-26T11:04:56.890Z,31.92
2022-08-26T11:05:56.880Z,31.97
2022-08-26T11:06:56.854Z,32.01
2022-08-26T11:07:57.133Z,32.04
2022-08-26T11:08:56.862Z,32.03
2022-08-26T11:09:56.822Z,32.11
2022-08-26T11:10:58.865Z,32.21
2022-08-26T11:11:56.800Z,32.31
2022-08-26T11:12:56.779Z,32.37
2022-08-26T11:13:56.814Z,32.37
2022-08-26T11:14:58.961Z,32.40
2022-08-26T11:15:56.743Z,32.45
2022-08-26T11:16:56.840Z,32.51
2022-08-26T11:17:56.737Z,32.55
2022-08-26T11:18:56.713Z,32.56
2022-08-26T11:20:01.658Z,32.60
2022-08-26T11:20:56.718Z,32.58
2022-08-26T11:21:56.690Z,32.56
2022-08-26T11:22:56.649Z,32.59
2022-08-26T11:23:56.677Z,32.63
2022-08-26T11:24:56.623Z,32.74
2022-08-26T11:25:56.973Z,32.77
2022-08-26T11:26:56.807Z,32.85
2022-08-26T11:27:56.621Z,32.92
2022-08-26T11:28:56.614Z,32.97
2022-08-26T11:29:56.570Z,33.05
2022-08-26T11:30:58.063Z,33.15
2022-08-26T11:31:56.759Z,33.27
2022-08-26T11:32:56.521Z,33.31
2022-08-26T11:33:56.571Z,33.32
2022-08-26T11:34:56.523Z,33.31
2022-08-26T11:35:56.495Z,33.40
2022-08-26T11:36:56.475Z,33.43
2022-08-26T11:37:56.474Z,33.42
2022-08-26T11:38:56.476Z,33.43
2022-08-26T11:39:57.114Z,33.50
2022-08-26T11:40:56.429Z,33.57
2022-08-26T11:41:57.860Z,33.64
2022-08-26T11:42:56.412Z,33.67
2022-08-26T11:43:56.424Z,33.65
2022-08-26T11:44:58.116Z,33.71
2022-08-26T11:45:56.390Z,33.71
2022-08-26T11:46:56.352Z,33.67
2022-08-26T11:47:56.351Z,33.65
2022-08-26T11:48:56.343Z,33.68
2022-08-26T11:49:56.310Z,33.68
2022-08-26T11:50:56.297Z,33.80
2022-08-26T11:51:56.295Z,33.86
2022-08-26T11:52:56.277Z,33.77
2022-08-26T11:53:56.298Z,33.67
2022-08-26T11:54:56.264Z,33.65
2022-08-26T11:55:56.234Z,33.73
2022-08-26T11:56:56.271Z,33.84
2022-08-26T11:57:56.224Z,33.92
2022-08-26T11:58:56.242Z,33.89
2022-08-26T11:59:56.213Z,33.84
2022-08-26T12:00:56.180Z,33.90
2022-08-26T12:01:56.172Z,33.94
2022-08-26T12:02:56.155Z,33.86
2022-08-26T12:03:56.254Z,33.92
2022-08-26T12:04:56.125Z,33.99
2022-08-26T12:05:56.111Z,34.05
2022-08-26T12:06:56.107Z,34.10
2022-08-26T12:07:56.106Z,34.05
2022-08-26T12:08:56.125Z,33.99
2022-08-26T12:09:56.371Z,33.95
2022-08-26T12:10:56.065Z,34.01
2022-08-26T12:11:57.976Z,34.10
2022-08-26T12:12:56.034Z,34.10
2022-08-26T12:13:56.047Z,33.99
2022-08-26T12:14:56.008Z,34.02
2022-08-26T12:15:56.146Z,34.05
2022-08-26T12:16:56.055Z,34.10
2022-08-26T12:17:55.967Z,34.08
2022-08-26T12:18:55.981Z,34.14
2022-08-26T12:19:55.940Z,34.10
2022-08-26T12:20:55.935Z,34.16
2022-08-26T12:21:55.927Z,34.21
2022-08-26T12:22:55.929Z,34.25
2022-08-26T12:23:56.018Z,34.23
2022-08-26T12:24:55.885Z,34.23
2022-08-26T12:25:55.877Z,34.25
2022-08-26T12:26:55.866Z,34.27
2022-08-26T12:27:55.880Z,34.25
2022-08-26T12:28:55.898Z,34.27
2022-08-26T12:29:55.846Z,34.36
2022-08-26T12:30:55.855Z,34.43
2022-08-26T12:31:55.849Z,34.47
2022-08-26T12:32:57.697Z,34.45
2022-08-26T12:33:55.773Z,34.39
2022-08-26T12:34:55.787Z,34.40
2022-08-26T12:35:56.696Z,34.45
2022-08-26T12:36:55.842Z,34.48
2022-08-26T12:37:55.751Z,34.54
2022-08-26T12:38:58.269Z,34.64
2022-08-26T12:39:55.726Z,34.64
2022-08-26T12:40:55.690Z,34.64
2022-08-26T12:41:55.695Z,34.50
2022-08-26T12:42:55.647Z,34.30
2022-08-26T12:43:55.646Z,34.35
2022-08-26T12:44:55.648Z,34.36
2022-08-26T12:45:55.737Z,34.33
2022-08-26T12:46:55.612Z,34.33
2022-08-26T12:47:55.590Z,34.39
2022-08-26T12:48:55.579Z,34.35
2022-08-26T12:49:55.556Z,34.32
2022-08-26T12:50:55.595Z,34.30
2022-08-26T12:51:55.533Z,34.18
2022-08-26T12:52:55.515Z,34.10
2022-08-26T12:53:55.524Z,34.05
2022-08-26T12:54:56.977Z,34.02
2022-08-26T12:55:55.520Z,34.05
2022-08-26T12:56:55.527Z,34.10
2022-08-26T12:57:55.458Z,34.10
2022-08-26T12:58:55.455Z,34.16
2022-08-26T12:59:55.485Z,34.25
2022-08-26T13:00:55.644Z,34.30
2022-08-26T13:01:55.634Z,34.33
2022-08-26T13:02:55.408Z,34.32
2022-08-26T13:03:55.382Z,34.25
2022-08-26T13:04:58.746Z,34.11
2022-08-26T13:05:55.399Z,33.99
2022-08-26T13:06:55.361Z,33.81
2022-08-26T13:07:55.332Z,33.61